createdAt,value
2019-04-10T00:02:58.181Z,8.90
2019-04-10T00:07:50.818Z,8.90
2019-04-10T00:12:45.330Z,8.70
2019-04-10T00:17:37.886Z,8.70
2019-04-10T00:22:30.441Z,8.60
2019-04-10T00:27:23.193Z,8.50
2019-04-10T00:32:16.013Z,8.40
2019-04-10T00:37:23.548Z,8.30
2019-04-10T00:42:19.730Z,8.20
2019-04-10T00:47:12.798Z,8.10
2019-04-10T00:52:04.710Z,8.10
2019-04-10T00:56:57.809Z,8.00
2019-04-10T01:01:50.121Z,7.90
2019-04-10T01:06:44.131Z,7.90
2019-04-10T01:11:36.042Z,7.80
2019-04-10T01:16:28.023Z,7.70
2019-04-10T01:21:20.814Z,7.70
2019-04-10T01:26:13.565Z,7.60
2019-04-10T01:31:07.685Z,7.60
2019-04-10T01:35:59.491Z,7.50
2019-04-10T01:40:52.923Z,7.50
2019-04-10T01:45:45.889Z,7.40
2019-04-10T01:50:37.601Z,7.40
2019-04-10T01:55:35.615Z,7.30
2019-04-10T02:00:26.585Z,7.30
2019-04-10T02:05:20.648Z,7.20
2019-04-10T02:10:13.980Z,7.20
2019-04-10T02:15:05.686Z,7.10
2019-04-10T02:20:04.854Z,7.00
2019-04-10T02:24:56.450Z,7.00
2019-04-10T02:29:49.958Z,6.90
2019-04-10T02:34:45.962Z,6.90
2019-04-10T02:39:54.237Z,6.80
2019-04-10T02:44:54.574Z,6.80
2019-04-10T02:49:49.027Z,6.70
2019-04-10T02:54:43.459Z,6.60
2019-04-10T02:59:37.870Z,6.60
2019-04-10T03:04:35.062Z,6.50
2019-04-10T03:09:52.683Z,6.40
2019-04-10T03:14:47.756Z,6.40
2019-04-10T03:19:43.874Z,6.30
2019-04-10T03:24:36.746Z,6.20
2019-04-10T03:29:31.558Z,6.10
2019-04-10T03:34:28.853Z,6.00
2019-04-10T03:39:34.487Z,6.00
2019-04-10T03:44:26.960Z,5.90
2019-04-10T03:49:18.707Z,5.90
2019-04-10T03:54:13.047Z,5.80
2019-04-10T03:59:06.640Z,5.70
2019-04-10T04:04:00.156Z,5.60
2019-04-10T04:09:07.695Z,5.50
2019-04-10T04:14:02.441Z,5.50
2019-04-10T04:18:54.803Z,5.40
2019-04-10T04:23:47.571Z,5.30
2019-04-10T04:28:40.148Z,5.30
2019-04-10T04:33:32.788Z,5.20
2019-04-10T04:38:26.365Z,5.10
2019-04-10T04:43:19.563Z,5.00
2019-04-10T04:48:14.524Z,5.00
2019-04-10T04:53:08.601Z,4.90
2019-04-10T04:58:00.668Z,4.80
2019-04-10T05:02:54.140Z,4.80
2019-04-10T05:08:01.109Z,4.70
2019-04-10T05:12:55.483Z,4.70
2019-04-10T05:17:47.909Z,4.70
2019-04-10T05:22:41.519Z,4.60
2019-04-10T05:27:34.962Z,4.60
2019-04-10T05:32:26.576Z,4.60
2019-04-10T05:37:19.525Z,4.70
2019-04-10T05:42:13.122Z,4.70
2019-04-10T05:47:07.309Z,4.70
2019-04-10T05:51:58.715Z,4.80
2019-04-10T05:56:51.236Z,4.90
2019-04-10T06:01:46.151Z,5.30
2019-04-10T06:06:39.225Z,5.90
2019-04-10T06:11:33.025Z,6.30
2019-04-10T06:16:26.580Z,6.70
2019-04-10T06:21:20.972Z,7.00
2019-04-10T06:26:17.556Z,7.50
2019-04-10T06:31:10.091Z,7.70
2019-04-10T06:36:03.200Z,7.90
2019-04-10T06:40:55.831Z,7.90
2019-04-10T06:45:50.247Z,8.00
2019-04-10T06:50:43.194Z,8.10
2019-04-10T06:55:38.933Z,8.30
2019-04-10T07:00:32.705Z,8.40
2019-04-10T07:05:37.826Z,8.50
2019-04-10T07:10:51.921Z,8.80
2019-04-10T07:15:47.819Z,9.00
2019-04-10T07:20:42.039Z,9.00
2019-04-10T07:25:35.847Z,9.10
2019-04-10T07:30:31.824Z,9.40
2019-04-10T07:35:25.643Z,9.50
2019-04-10T07:40:24.836Z,9.60
2019-04-10T07:45:16.706Z,10.00
2019-04-10T07:50:10.769Z,10.20
2019-04-10T07:55:04.855Z,10.60
2019-04-10T07:59:59.132Z,11.10
2019-04-10T08:04:52.507Z,11.40
2019-04-10T08:09:46.747Z,11.40
2019-04-10T08:14:39.901Z,11.40
2019-04-10T08:19:33.219Z,11.80
2019-04-10T08:24:28.429Z,12.00
2019-04-10T08:29:20.224Z,12.50
2019-04-10T08:34:13.110Z,12.70
2019-04-10T08:39:06.693Z,12.40
2019-04-10T08:43:59.729Z,12.30
2019-04-10T08:48:53.848Z,12.80
2019-04-10T08:53:47.090Z,13.10
2019-04-10T08:58:40.980Z,13.40
2019-04-10T09:03:34.955Z,13.40
2019-04-10T09:08:28.708Z,13.70
2019-04-10T09:13:22.119Z,14.00
2019-04-10T09:18:16.730Z,14.10
2019-04-10T09:23:27.452Z,14.00
2019-04-10T09:28:23.067Z,14.10
2019-04-10T09:33:28.074Z,14.20
2019-04-10T09:38:22.756Z,14.30
2019-04-10T09:43:16.161Z,14.50
2019-04-10T09:48:09.333Z,15.00
2019-04-10T09:53:03.962Z,15.50
2019-04-10T09:57:57.141Z,15.80
2019-04-10T10:02:50.707Z,16.10
2019-04-10T10:07:43.834Z,16.40
2019-04-10T10:12:38.504Z,16.10
2019-04-10T10:17:32.753Z,15.90
2019-04-10T10:22:27.280Z,16.10
2019-04-10T10:27:21.949Z,16.30
2019-04-10T10:32:17.017Z,16.40
2019-04-10T10:37:10.901Z,16.50
2019-04-10T10:42:05.372Z,15.80
2019-04-10T10:46:59.926Z,16.10
2019-04-10T10:51:54.906Z,16.20
2019-04-10T10:56:47.465Z,16.00
2019-04-10T11:01:40.833Z,15.70
2019-04-10T11:06:34.981Z,16.00
2019-04-10T11:11:39.494Z,16.00
2019-04-10T11:16:34.249Z,16.70
2019-04-10T11:21:26.873Z,16.30
2019-04-10T11:26:25.702Z,16.00
2019-04-10T11:31:23.615Z,16.00
2019-04-10T11:36:17.411Z,16.10
2019-04-10T11:41:10.573Z,16.20
2019-04-10T11:46:05.037Z,16.00
2019-04-10T11:51:03.829Z,15.90
2019-04-10T11:56:05.620Z,16.40
2019-04-10T12:01:09.027Z,16.90
2019-04-10T12:06:06.227Z,16.90
2019-04-10T12:15:53.982Z,17.40
2019-04-10T12:20:46.195Z,17.30
2019-04-10T12:25:39.219Z,17.10
2019-04-10T12:30:32.196Z,17.10
2019-04-10T12:35:25.451Z,17.40
2019-04-10T12:40:19.215Z,17.50
2019-04-10T12:45:12.236Z,17.50
2019-04-10T12:50:06.557Z,17.50
2019-04-10T12:55:00.409Z,17.80
2019-04-10T13:00:04.836Z,17.70
2019-04-10T13:04:56.583Z,17.30
2019-04-10T13:09:50.406Z,17.00
2019-04-10T13:14:43.493Z,17.30
2019-04-10T13:19:37.471Z,17.60
2019-04-10T13:24:30.353Z,17.70
2019-04-10T13:29:24.286Z,17.60
2019-04-10T13:34:18.148Z,17.30
2019-04-10T13:39:11.497Z,17.20
2019-04-10T13:44:09.029Z,17.10
2019-04-10T13:49:03.657Z,17.10
2019-04-10T13:53:58.440Z,17.20
2019-04-10T13:58:51.243Z,17.10
2019-04-10T14:03:46.863Z,17.00
2019-04-10T14:09:02.976Z,16.80
2019-04-10T14:13:53.972Z,16.70
2019-04-10T14:18:46.826Z,16.80
2019-04-10T14:23:40.368Z,16.80
2019-04-10T14:28:33.771Z,16.60
2019-04-10T14:33:27.951Z,16.60
2019-04-10T14:38:21.049Z,16.60
2019-04-10T14:43:16.666Z,16.60
2019-04-10T14:48:09.286Z,16.60
2019-04-10T14:53:02.402Z,16.40
2019-04-10T14:57:55.704Z,16.20
2019-04-10T15:02:48.919Z,16.10
2019-04-10T15:07:44.760Z,16.00
2019-04-10T15:12:35.747Z,15.90
2019-04-10T15:17:29.020Z,15.60
2019-04-10T15:22:21.038Z,15.30
2019-04-10T15:27:13.902Z,15.10
2019-04-10T15:32:06.793Z,14.80
2019-04-10T15:37:00.422Z,14.40
2019-04-10T15:41:52.686Z,14.10
2019-04-10T15:46:45.550Z,14.00
2019-04-10T15:51:37.335Z,13.80
2019-04-10T15:56:30.755Z,13.70
2019-04-10T16:01:23.675Z,13.50
2019-04-10T16:06:18.730Z,13.50
2019-04-10T16:11:11.558Z,13.40
2019-04-10T16:16:04.932Z,13.20
2019-04-10T16:20:56.238Z,13.10
2019-04-10T16:25:48.202Z,13.00
2019-04-10T16:30:42.977Z,12.90
2019-04-10T16:35:38.353Z,12.80
2019-04-10T16:40:31.867Z,12.70
2019-04-10T16:45:26.508Z,12.60
2019-04-10T16:50:19.298Z,12.60
2019-04-10T16:55:11.203Z,12.40
2019-04-10T17:00:04.717Z,12.40
2019-04-10T17:04:58.476Z,12.30
2019-04-10T17:09:53.279Z,12.30
2019-04-10T17:14:46.132Z,12.30
2019-04-10T17:19:52.749Z,12.10
2019-04-10T17:24:49.349Z,12.00
2019-04-10T17:29:42.038Z,11.80
2019-04-10T17:34:35.161Z,11.70
2019-04-10T17:39:28.081Z,11.60
2019-04-10T17:44:21.269Z,11.50
2019-04-10T17:49:15.377Z,11.40
2019-04-10T17:54:08.040Z,11.20
2019-04-10T17:59:02.245Z,11.10
2019-04-10T18:04:03.633Z,10.90
2019-04-10T18:08:55.061Z,10.80
2019-04-10T18:13:49.117Z,10.70
2019-04-10T18:18:44.034Z,10.60
2019-04-10T18:23:39.687Z,10.50
2019-04-10T18:28:36.468Z,10.40
2019-04-10T18:33:30.738Z,10.30
2019-04-10T18:38:23.611Z,10.20
2019-04-10T18:43:18.093Z,10.10
2019-04-10T18:48:11.338Z,10.00
2019-04-10T18:53:04.599Z,9.90
2019-04-10T18:57:57.346Z,9.80
2019-04-10T19:02:51.352Z,9.80
2019-04-10T19:07:43.982Z,9.70
2019-04-10T19:12:36.919Z,9.60
2019-04-10T19:17:30.892Z,9.50
2019-04-10T19:22:26.070Z,9.40
2019-04-10T19:27:18.521Z,9.20
2019-04-10T19:32:12.025Z,9.20
2019-04-10T19:37:06.115Z,9.10
2019-04-10T19:41:58.536Z,9.00
2019-04-10T19:46:51.174Z,8.90
2019-04-10T19:51:43.545Z,8.80
2019-04-10T19:56:36.907Z,8.80
2019-04-10T20:01:31.973Z,8.70
2019-04-10T20:06:25.997Z,8.60
2019-04-10T20:11:33.409Z,8.60
2019-04-10T20:16:28.409Z,8.50
2019-04-10T20:21:20.667Z,8.40
2019-04-10T20:26:13.424Z,8.30
2019-04-10T20:31:07.362Z,8.20
2019-04-10T20:36:00.874Z,8.20
2019-04-10T20:40:53.950Z,8.10
2019-04-10T20:45:47.510Z,8.10
2019-04-10T20:50:40.729Z,7.90
2019-04-10T20:55:35.494Z,7.90
2019-04-10T21:00:27.290Z,7.80
2019-04-10T21:05:20.244Z,7.70
2019-04-10T21:10:14.903Z,7.70
2019-04-10T21:15:06.421Z,7.60
2019-04-10T21:19:59.974Z,7.50
2019-04-10T21:24:54.158Z,7.50
2019-04-10T21:29:47.334Z,7.50
2019-04-10T21:34:40.007Z,7.30
2019-04-10T21:39:32.604Z,7.30
2019-04-10T21:44:26.611Z,7.30
2019-04-10T21:49:18.504Z,7.20
2019-04-10T21:54:12.733Z,7.10
2019-04-10T21:59:06.310Z,7.00
2019-04-10T22:03:59.163Z,6.90
2019-04-10T22:08:52.786Z,6.90
2019-04-10T22:13:46.474Z,6.80
2019-04-10T22:18:39.769Z,6.70
2019-04-10T22:23:32.985Z,6.70
2019-04-10T22:28:26.187Z,6.60
2019-04-10T22:33:19.155Z,6.50
2019-04-10T22:38:12.863Z,6.50
2019-04-10T22:43:05.394Z,6.40
2019-04-10T22:47:59.204Z,6.30
2019-04-10T22:52:52.582Z,6.20
2019-04-10T22:57:45.046Z,6.20
2019-04-10T23:02:38.449Z,6.10
2019-04-10T23:07:31.025Z,6.00
2019-04-10T23:12:23.142Z,5.90
2019-04-10T23:17:16.589Z,5.80
2019-04-10T23:22:09.177Z,5.70
2019-04-10T23:27:05.830Z,5.60
2019-04-10T23:31:57.975Z,5.60
2019-04-10T23:36:50.732Z,5.50
2019-04-10T23:41:42.901Z,5.40
2019-04-10T23:46:35.440Z,5.30
2019-04-10T23:51:29.286Z,5.30
2019-04-10T23:56:23.632Z,5.20
